| time (UTC) | temp C | wind direction | speed KPH | gust KPH | rain 1hr cm | rain 24hr cm | rain mn cm | humidity % | barometer mb |
| 20260906223816 | 31 | 325 | 1.6 | 1.6 | 0.00 | 0.00 | 0.00 | 35 | 1013.8 |
| 20260906223312 | 30 | 334 | 0.0 | 1.6 | 0.00 | 0.00 | 0.00 | 36 | 1013.9 |
| 20260906222809 | 31 | 293 | 1.6 | 1.6 | 0.00 | 0.00 | 0.00 | 35 | 1014.2 |
| 20260906222308 | 31 | 345 | 0.0 | 1.6 | 0.00 | 0.00 | 0.00 | 35 | 1014.3 |
| 20260906221806 | 31 | 303 | 1.6 | 1.6 | 0.00 | 0.00 | 0.00 | 34 | 1014.4 |
| 20260906221300 | 31 | 278 | 0.0 | 1.6 | 0.00 | 0.00 | 0.00 | 33 | 1014.8 |
| 20260906220756 | 32 | 303 | 0.0 | 1.6 | 0.00 | 0.00 | 0.00 | 32 | 1014.3 |
| 20260906220251 | 32 | 319 | 1.6 | 3.2 | 0.00 | 0.00 | 0.00 | 32 | 1014.5 |
| 20260906215750 | 31 | 324 | 4.8 | 8.0 | 0.00 | 0.00 | 0.00 | 31 | 1014.6 |
| 20260906215251 | 31 | 296 | 0.0 | 1.6 | 0.00 | 0.00 | 0.00 | 32 | 1014.8 |
| 20260906214748 | 32 | 317 | 0.0 | 1.6 | 0.00 | 0.00 | 0.00 | 31 | 1014.5 |
| 20260906214239 | 32 | 332 | 1.6 | 3.2 | 0.00 | 0.00 | 0.00 | 30 | 1015.0 |
| 20260906213738 | 32 | 319 | 3.2 | 3.2 | 0.00 | 0.00 | 0.00 | 31 | 1014.8 |
| 20260906213237 | 32 | 309 | 0.0 | 1.6 | 0.00 | 0.00 | 0.00 | 31 | 1014.9 |
| 20260906212734 | 33 | 307 | 3.2 | 3.2 | 0.00 | 0.00 | 0.00 | 30 | 1014.8 |
| 20260906212231 | 33 | 241 | 1.6 | 3.2 | 0.00 | 0.00 | 0.00 | 29 | 1015.0 |
| 20260906211730 | 33 | 264 | 1.6 | 1.6 | 0.00 | 0.00 | 0.00 | 30 | 1015.2 |
| 20260906211225 | 33 | 307 | 0.0 | 0.0 | 0.00 | 0.00 | 0.00 | 29 | 1015.1 |
| 20260906210721 | 32 | 320 | 3.2 | 3.2 | 0.00 | 0.00 | 0.00 | 31 | 1015.2 |
| 20260906210221 | 33 | 21 | 3.2 | 3.2 | 0.00 | 0.00 | 0.00 | 30 | 1015.3 |
| 20260906205716 | 33 | 317 | 1.6 | 3.2 | 0.00 | 0.00 | 0.00 | 29 | 1015.2 |
| 20260906205213 | 33 | 300 | 0.0 | 0.0 | 0.00 | 0.00 | 0.00 | 30 | 1015.6 |
| 20260906204707 | 32 | 308 | 1.6 | 1.6 | 0.00 | 0.00 | 0.00 | 29 | 1015.6 |
| 20260906204207 | 32 | 279 | 3.2 | 3.2 | 0.00 | 0.00 | 0.00 | 30 | 1015.6 |
| 20260906203706 | 32 | 128 | 0.0 | 1.6 | 0.00 | 0.00 | 0.00 | 30 | 1015.8 |
| 20260906203201 | 32 | 303 | 0.0 | 1.6 | 0.00 | 0.00 | 0.00 | 31 | 1015.7 |
| 20260906202659 | 32 | 9 | 3.2 | 3.2 | 0.00 | 0.00 | 0.00 | 30 | 1015.7 |
| 20260906202157 | 32 | 51 | 3.2 | 4.8 | 0.00 | 0.00 | 0.00 | 30 | 1015.9 |
| 20260906201653 | 32 | 304 | 0.0 | 1.6 | 0.00 | 0.00 | 0.00 | 31 | 1016.0 |
| 20260906201152 | 32 | 335 | 0.0 | 1.6 | 0.00 | 0.00 | 0.00 | 31 | 1016.3 |
| 20260906200648 | 31 | 20 | 3.2 | 3.2 | 0.00 | 0.00 | 0.00 | 31 | 1016.2 |
| 20260906200144 | 31 | 67 | 1.6 | 4.8 | 0.00 | 0.00 | 0.00 | 31 | 1016.0 |
| 20260906195639 | 31 | 331 | 1.6 | 1.6 | 0.00 | 0.00 | 0.00 | 31 | 1016.2 |
| 20260906195136 | 31 | 144 | 3.2 | 3.2 | 0.00 | 0.00 | 0.00 | 31 | 1016.4 |
| 20260906194631 | 31 | 18 | 1.6 | 1.6 | 0.00 | 0.00 | 0.00 | 32 | 1016.0 |
| 20260906194126 | 31 | 325 | 4.8 | 4.8 | 0.00 | 0.00 | 0.00 | 31 | 1016.5 |
| 20260906193626 | 31 | 302 | 1.6 | 1.6 | 0.00 | 0.00 | 0.00 | 32 | 1016.6 |
| 20260906193122 | 31 | 282 | 0.0 | 1.6 | 0.00 | 0.00 | 0.00 | 32 | 1016.5 |
| 20260906192617 | 31 | 87 | 3.2 | 4.8 | 0.00 | 0.00 | 0.00 | 32 | 1016.8 |
| 20260906192116 | 31 | 320 | 1.6 | 3.2 | 0.00 | 0.00 | 0.00 | 31 | 1016.8 |
| 20260906191612 | 31 | 271 | 1.6 | 3.2 | 0.00 | 0.00 | 0.00 | 31 | 1017.1 |
| 20260906191110 | 30 | 1 | 0.0 | 1.6 | 0.00 | 0.00 | 0.00 | 33 | 1017.1 |
| 20260906190605 | 30 | 63 | 1.6 | 3.2 | 0.00 | 0.00 | 0.00 | 33 | 1017.3 |
| 20260906190059 | 31 | 298 | 1.6 | 1.6 | 0.00 | 0.00 | 0.00 | 33 | 1017.2 |
| 20260906185558 | 30 | 313 | 1.6 | 3.2 | 0.00 | 0.00 | 0.00 | 36 | 1017.3 |
| 20260906185057 | 30 | 313 | 1.6 | 3.2 | 0.00 | 0.00 | 0.00 | 36 | 1017.6 |
| 20260906184552 | 30 | 298 | 0.0 | 1.6 | 0.00 | 0.00 | 0.00 | 36 | 1017.6 |
| 20260906184048 | 30 | 346 | 4.8 | 4.8 | 0.00 | 0.00 | 0.00 | 36 | 1017.6 |
| 20260906183544 | 30 | 326 | 3.2 | 3.2 | 0.00 | 0.00 | 0.00 | 35 | 1017.7 |
| 20260906183040 | 29 | 325 | 0.0 | 0.0 | 0.00 | 0.00 | 0.00 | 39 | 1017.9 |
| 20260906182535 | 30 | 316 | 0.0 | 0.0 | 0.00 | 0.00 | 0.00 | 36 | 1018.2 |
| 20260906182031 | 30 | 312 | 0.0 | 1.6 | 0.00 | 0.00 | 0.00 | 36 | 1018.2 |
| 20260906181526 | 29 | 298 | 0.0 | 1.6 | 0.00 | 0.00 | 0.00 | 36 | 1018.2 |
| 20260906181021 | 28 | 325 | 4.8 | 4.8 | 0.00 | 0.00 | 0.00 | 38 | 1018.4 |
| 20260906180516 | 29 | 328 | 0.0 | 0.0 | 0.00 | 0.00 | 0.00 | 38 | 1018.6 |
| 20260906180016 | 28 | 226 | 1.6 | 1.6 | 0.00 | 0.00 | 0.00 | 40 | 1018.4 |
| 20260906175515 | 28 | 288 | 0.0 | 0.0 | 0.00 | 0.00 | 0.00 | 42 | 1018.5 |
| 20260906175009 | 28 | 346 | 0.0 | 0.0 | 0.00 | 0.00 | 0.00 | 42 | 1018.8 |
| 20260906174508 | 27 | 328 | 1.6 | 3.2 | 0.00 | 0.00 | 0.00 | 42 | 1019.0 |
| 20260906174003 | 26 | 45 | 4.8 | 4.8 | 0.00 | 0.00 | 0.00 | 43 | 1019.0 |
| 20260906173458 | 27 | 311 | 0.0 | 0.0 | 0.00 | 0.00 | 0.00 | 42 | 1019.1 |
| 20260906172957 | 27 | 332 | 0.0 | 0.0 | 0.00 | 0.00 | 0.00 | 42 | 1018.9 |
| 20260906172453 | 28 | 287 | 0.0 | 1.6 | 0.00 | 0.00 | 0.00 | 39 | 1019.3 |
| 20260906171948 | 27 | 304 | 0.0 | 0.0 | 0.00 | 0.00 | 0.00 | 39 | 1019.3 |
| 20260906171443 | 27 | 321 | 0.0 | 0.0 | 0.00 | 0.00 | 0.00 | 43 | 1019.5 |
| 20260906170939 | 26 | 303 | 0.0 | 0.0 | 0.00 | 0.00 | 0.00 | 44 | 1019.7 |
| 20260906170435 | 26 | 69 | 1.6 | 3.2 | 0.00 | 0.00 | 0.00 | 42 | 1019.6 |
| 20260906165932 | 26 | 293 | 1.6 | 1.6 | 0.00 | 0.00 | 0.00 | 43 | 1019.6 |
| 20260906165430 | 26 | 317 | 1.6 | 1.6 | 0.00 | 0.00 | 0.00 | 45 | 1019.9 |
| 20260906164926 | 25 | 303 | 1.6 | 1.6 | 0.00 | 0.00 | 0.00 | 46 | 1020.0 |
| 20260906164424 | 25 | 302 | 0.0 | 0.0 | 0.00 | 0.00 | 0.00 | 47 | 1019.9 |
| 20260906163921 | 25 | 327 | 0.0 | 0.0 | 0.00 | 0.00 | 0.00 | 48 | 1019.9 |
| 20260906163417 | 25 | 46 | 0.0 | 1.6 | 0.00 | 0.00 | 0.00 | 47 | 1019.8 |
| 20260906162914 | 25 | 302 | 0.0 | 0.0 | 0.00 | 0.00 | 0.00 | 49 | 1020.0 |
| 20260906162407 | 25 | 309 | 0.0 | 0.0 | 0.00 | 0.00 | 0.00 | 49 | 1020.3 |
| 20260906161903 | 25 | 319 | 0.0 | 0.0 | 0.00 | 0.00 | 0.00 | 49 | 1020.0 |
| 20260906161402 | 25 | 312 | 0.0 | 1.6 | 0.00 | 0.00 | 0.00 | 49 | 1020.0 |
| 20260906160901 | 24 | 316 | 0.0 | 0.0 | 0.00 | 0.00 | 0.00 | 52 | 1019.9 |
| 20260906160354 | 23 | 331 | 1.6 | 1.6 | 0.00 | 0.00 | 0.00 | 52 | 1019.9 |
| 20260906155853 | 24 | 57 | 1.6 | 1.6 | 0.00 | 0.00 | 0.00 | 51 | 1020.0 |
| 20260906155341 | 23 | 299 | 0.0 | 0.0 | 0.00 | 0.00 | 0.00 | 53 | 1019.9 |
| 20260906154838 | 23 | 333 | 1.6 | 1.6 | 0.00 | 0.00 | 0.00 | 52 | 1019.7 |
| 20260906154332 | 23 | 311 | 0.0 | 0.0 | 0.00 | 0.00 | 0.00 | 55 | 1020.2 |
| 20260906153831 | 23 | 316 | 0.0 | 0.0 | 0.00 | 0.00 | 0.00 | 53 | 1019.8 |
| 20260906153330 | 23 | 300 | 0.0 | 0.0 | 0.00 | 0.00 | 0.00 | 53 | 1020.2 |
| 20260906152825 | 22 | 296 | 1.6 | 1.6 | 0.00 | 0.00 | 0.00 | 55 | 1020.3 |
| 20260906152320 | 22 | 298 | 0.0 | 0.0 | 0.00 | 0.00 | 0.00 | 54 | 1019.9 |
| 20260906151820 | 22 | 289 | 0.0 | 1.6 | 0.00 | 0.00 | 0.00 | 56 | 1020.3 |
| 20260906151315 | 21 | 302 | 0.0 | 0.0 | 0.00 | 0.00 | 0.00 | 58 | 1020.3 |
| 20260906150811 | 21 | 61 | 1.6 | 3.2 | 0.00 | 0.00 | 0.00 | 56 | 1020.3 |
| 20260906150306 | 21 | 342 | 0.0 | 1.6 | 0.00 | 0.00 | 0.00 | 56 | 1020.3 |
| 20260906145805 | 22 | 312 | 0.0 | 0.0 | 0.00 | 0.00 | 0.00 | 54 | 1020.4 |
| 20260906145306 | 22 | 307 | 0.0 | 0.0 | 0.00 | 0.00 | 0.00 | 56 | 1020.3 |
| 20260906144759 | 21 | 303 | 0.0 | 0.0 | 0.00 | 0.00 | 0.00 | 56 | 1020.0 |
| 20260906144254 | 21 | 294 | 0.0 | 0.0 | 0.00 | 0.00 | 0.00 | 58 | 1020.2 |
| 20260906143754 | 21 | 303 | 0.0 | 0.0 | 0.00 | 0.00 | 0.00 | 59 | 1020.3 |
| 20260906143251 | 20 | 296 | 0.0 | 0.0 | 0.00 | 0.00 | 0.00 | 63 | 1020.3 |
| 20260906142750 | 18 | 302 | 0.0 | 0.0 | 0.00 | 0.00 | 0.00 | 66 | 1020.2 |
| 20260906142246 | 17 | 297 | 0.0 | 0.0 | 0.00 | 0.00 | 0.00 | 71 | 1020.0 |
| 20260906141744 | 17 | 294 | 0.0 | 0.0 | 0.00 | 0.00 | 0.00 | 73 | 1020.4 |
| 20260906141239 | 17 | 298 | 0.0 | 0.0 | 0.00 | 0.00 | 0.00 | 75 | 1020.3 |
| 20260906140738 | 17 | 298 | 0.0 | 0.0 | 0.00 | 0.00 | 0.00 | 74 | 1020.2 |
| 20260906140234 | 17 | 296 | 0.0 | 0.0 | 0.00 | 0.00 | 0.00 | 74 | 1020.5 |
| 20260906135730 | 17 | 296 | 0.0 | 0.0 | 0.00 | 0.00 | 0.00 | 73 | 1020.3 |
| 20260906135227 | 17 | 294 | 0.0 | 0.0 | 0.00 | 0.00 | 0.00 | 72 | 1020.3 |
| 20260906134722 | 17 | 294 | 0.0 | 0.0 | 0.00 | 0.00 | 0.00 | 74 | 1020.3 |
| 20260906134217 | 16 | 296 | 0.0 | 0.0 | 0.00 | 0.00 | 0.00 | 72 | 1020.3 |
| 20260906133713 | 16 | 296 | 0.0 | 0.0 | 0.00 | 0.00 | 0.00 | 74 | 1020.0 |
| 20260906133208 | 15 | 294 | 0.0 | 0.0 | 0.00 | 0.00 | 0.00 | 80 | 1020.3 |
| 20260906132703 | 15 | 295 | 0.0 | 0.0 | 0.00 | 0.00 | 0.00 | 81 | 1020.2 |
| 20260906132159 | 15 | 295 | 0.0 | 0.0 | 0.00 | 0.00 | 0.00 | 82 | 1020.3 |
| 20260906131654 | 15 | 300 | 0.0 | 0.0 | 0.00 | 0.00 | 0.00 | 83 | 1020.3 |
| 20260906131149 | 14 | 302 | 0.0 | 0.0 | 0.00 | 0.00 | 0.00 | 83 | 1020.0 |
| 20260906130644 | 14 | 301 | 0.0 | 0.0 | 0.00 | 0.00 | 0.00 | 83 | 1019.8 |
| 20260906130139 | 14 | 302 | 0.0 | 0.0 | 0.00 | 0.00 | 0.00 | 84 | 1020.0 |
| 20260906125637 | 14 | 301 | 0.0 | 0.0 | 0.00 | 0.00 | 0.00 | 84 | 1019.8 |
| 20260906125136 | 14 | 300 | 0.0 | 0.0 | 0.00 | 0.00 | 0.00 | 84 | 1019.7 |
| 20260906124632 | 14 | 302 | 0.0 | 0.0 | 0.00 | 0.00 | 0.00 | 83 | 1019.6 |
| 20260906124127 | 14 | 303 | 0.0 | 0.0 | 0.00 | 0.00 | 0.00 | 84 | 1019.6 |
| 20260906123626 | 14 | 298 | 0.0 | 0.0 | 0.00 | 0.00 | 0.00 | 83 | 1019.6 |
| 20260906123121 | 14 | 305 | 0.0 | 0.0 | 0.00 | 0.00 | 0.00 | 82 | 1019.7 |
| 20260906122620 | 15 | 305 | 0.0 | 0.0 | 0.00 | 0.00 | 0.00 | 82 | 1019.6 |
| 20260906122116 | 15 | 305 | 0.0 | 0.0 | 0.00 | 0.00 | 0.00 | 81 | 1019.6 |
| 20260906121612 | 15 | 300 | 0.0 | 0.0 | 0.00 | 0.00 | 0.00 | 80 | 1019.8 |
| 20260906121108 | 15 | 298 | 0.0 | 0.0 | 0.00 | 0.00 | 0.00 | 79 | 1019.7 |
| 20260906120604 | 15 | 302 | 0.0 | 0.0 | 0.00 | 0.00 | 0.00 | 78 | 1019.7 |
| 20260906120101 | 15 | 293 | 0.0 | 0.0 | 0.00 | 0.00 | 0.00 | 78 | 1019.7 |
| 20260906115600 | 15 | 293 | 0.0 | 0.0 | 0.00 | 0.00 | 0.00 | 77 | 1019.8 |
| 20260906115056 | 15 | 294 | 0.0 | 0.0 | 0.00 | 0.00 | 0.00 | 79 | 1019.8 |
| 20260906114550 | 15 | 294 | 0.0 | 0.0 | 0.00 | 0.00 | 0.00 | 79 | 1019.7 |
| 20260906114045 | 15 | 294 | 0.0 | 0.0 | 0.00 | 0.00 | 0.00 | 79 | 1019.6 |
| 20260906113544 | 15 | 293 | 0.0 | 0.0 | 0.00 | 0.00 | 0.00 | 79 | 1019.7 |
| 20260906113040 | 15 | 293 | 0.0 | 0.0 | 0.00 | 0.00 | 0.00 | 80 | 1019.7 |
| 20260906112534 | 15 | 302 | 0.0 | 0.0 | 0.00 | 0.00 | 0.00 | 80 | 1019.5 |
| 20260906112031 | 15 | 304 | 0.0 | 0.0 | 0.00 | 0.00 | 0.00 | 80 | 1019.6 |
| 20260906111530 | 15 | 300 | 0.0 | 0.0 | 0.00 | 0.00 | 0.00 | 80 | 1019.5 |
| 20260906111026 | 15 | 296 | 0.0 | 0.0 | 0.00 | 0.00 | 0.00 | 80 | 1019.7 |
| 20260906110526 | 15 | 303 | 0.0 | 0.0 | 0.00 | 0.00 | 0.00 | 80 | 1019.3 |
| 20260906110025 | 15 | 297 | 0.0 | 0.0 | 0.00 | 0.00 | 0.00 | 80 | 1019.3 |
| 20260906105520 | 15 | 303 | 0.0 | 0.0 | 0.00 | 0.00 | 0.00 | 79 | 1019.0 |
| 20260906105016 | 15 | 305 | 0.0 | 0.0 | 0.00 | 0.00 | 0.00 | 77 | 1019.0 |
| 20260906104514 | 15 | 300 | 0.0 | 0.0 | 0.00 | 0.00 | 0.00 | 77 | 1019.5 |
| 20260906104009 | 15 | 305 | 0.0 | 0.0 | 0.00 | 0.00 | 0.00 | 77 | 1019.1 |
| 20260906103507 | 16 | 302 | 0.0 | 0.0 | 0.00 | 0.00 | 0.00 | 77 | 1018.9 |
| 20260906103002 | 15 | 302 | 0.0 | 0.0 | 0.00 | 0.00 | 0.00 | 77 | 1019.0 |
| 20260906102457 | 16 | 298 | 0.0 | 0.0 | 0.00 | 0.00 | 0.00 | 76 | 1018.9 |
| 20260906101956 | 16 | 297 | 0.0 | 0.0 | 0.00 | 0.00 | 0.00 | 76 | 1019.1 |
| 20260906101452 | 16 | 314 | 0.0 | 0.0 | 0.00 | 0.00 | 0.00 | 76 | 1019.1 |
| 20260906100947 | 16 | 277 | 0.0 | 0.0 | 0.00 | 0.00 | 0.00 | 76 | 1018.8 |
| 20260906100442 | 16 | 305 | 0.0 | 0.0 | 0.00 | 0.00 | 0.00 | 76 | 1019.1 |
| 20260906095936 | 16 | 303 | 0.0 | 0.0 | 0.00 | 0.00 | 0.00 | 75 | 1019.1 |
| 20260906095431 | 16 | 306 | 0.0 | 0.0 | 0.00 | 0.00 | 0.00 | 74 | 1019.0 |
| 20260906094926 | 17 | 303 | 0.0 | 0.0 | 0.00 | 0.00 | 0.00 | 72 | 1019.1 |
| 20260906094420 | 17 | 295 | 0.0 | 0.0 | 0.00 | 0.00 | 0.00 | 72 | 1019.1 |
| 20260906093917 | 17 | 295 | 0.0 | 0.0 | 0.00 | 0.00 | 0.00 | 72 | 1018.9 |
| 20260906093413 | 17 | 295 | 0.0 | 0.0 | 0.00 | 0.00 | 0.00 | 72 | 1019.0 |
| 20260906092912 | 17 | 303 | 0.0 | 0.0 | 0.00 | 0.00 | 0.00 | 70 | 1018.8 |
| 20260906092407 | 17 | 297 | 0.0 | 0.0 | 0.00 | 0.00 | 0.00 | 69 | 1019.1 |
| 20260906091902 | 17 | 295 | 0.0 | 0.0 | 0.00 | 0.00 | 0.00 | 68 | 1019.0 |
| 20260906091358 | 17 | 294 | 0.0 | 0.0 | 0.00 | 0.00 | 0.00 | 67 | 1018.8 |
| 20260906090855 | 17 | 291 | 0.0 | 0.0 | 0.00 | 0.00 | 0.00 | 67 | 1018.9 |
| 20260906090354 | 17 | 294 | 0.0 | 0.0 | 0.00 | 0.00 | 0.00 | 67 | 1018.6 |
| 20260906085848 | 17 | 295 | 0.0 | 0.0 | 0.00 | 0.00 | 0.00 | 67 | 1018.9 |
| 20260906085342 | 17 | 295 | 0.0 | 0.0 | 0.00 | 0.00 | 0.00 | 66 | 1018.8 |
| 20260906084837 | 17 | 294 | 0.0 | 0.0 | 0.00 | 0.00 | 0.00 | 66 | 1018.8 |
| 20260906084336 | 17 | 300 | 0.0 | 0.0 | 0.00 | 0.00 | 0.00 | 66 | 1018.4 |
| 20260906083831 | 17 | 305 | 0.0 | 0.0 | 0.00 | 0.00 | 0.00 | 66 | 1018.8 |
| 20260906083326 | 17 | 300 | 0.0 | 0.0 | 0.00 | 0.00 | 0.00 | 66 | 1018.3 |
| 20260906082820 | 17 | 301 | 0.0 | 0.0 | 0.00 | 0.00 | 0.00 | 66 | 1018.6 |
| 20260906082315 | 17 | 302 | 0.0 | 0.0 | 0.00 | 0.00 | 0.00 | 65 | 1018.8 |
| 20260906081811 | 17 | 324 | 0.0 | 0.0 | 0.00 | 0.00 | 0.00 | 65 | 1018.6 |
| 20260906081307 | 17 | 300 | 0.0 | 0.0 | 0.00 | 0.00 | 0.00 | 65 | 1018.5 |
| 20260906080803 | 17 | 324 | 0.0 | 0.0 | 0.00 | 0.00 | 0.00 | 65 | 1018.6 |
| 20260906080300 | 18 | 302 | 0.0 | 0.0 | 0.00 | 0.00 | 0.00 | 65 | 1018.9 |
| 20260906075759 | 18 | 302 | 0.0 | 0.0 | 0.00 | 0.00 | 0.00 | 64 | 1019.0 |
| 20260906075258 | 18 | 302 | 0.0 | 0.0 | 0.00 | 0.00 | 0.00 | 64 | 1018.6 |
| 20260906074754 | 18 | 298 | 0.0 | 0.0 | 0.00 | 0.00 | 0.00 | 63 | 1018.5 |
| 20260906074253 | 18 | 296 | 0.0 | 0.0 | 0.00 | 0.00 | 0.00 | 62 | 1018.5 |
| 20260906073748 | 18 | 294 | 0.0 | 0.0 | 0.00 | 0.00 | 0.00 | 61 | 1018.5 |
| 20260906073248 | 19 | 295 | 0.0 | 0.0 | 0.00 | 0.00 | 0.00 | 60 | 1018.4 |
| 20260906072744 | 19 | 294 | 0.0 | 0.0 | 0.00 | 0.00 | 0.00 | 60 | 1018.4 |
| 20260906072239 | 19 | 301 | 0.0 | 0.0 | 0.00 | 0.00 | 0.00 | 59 | 1018.5 |
| 20260906071735 | 20 | 294 | 0.0 | 0.0 | 0.00 | 0.00 | 0.00 | 57 | 1018.5 |
| 20260906071235 | 20 | 305 | 0.0 | 0.0 | 0.00 | 0.00 | 0.00 | 57 | 1018.3 |
| 20260906070731 | 20 | 292 | 0.0 | 0.0 | 0.00 | 0.00 | 0.00 | 57 | 1018.5 |
| 20260906070227 | 20 | 294 | 0.0 | 0.0 | 0.00 | 0.00 | 0.00 | 56 | 1018.3 |
| 20260906065726 | 20 | 295 | 0.0 | 0.0 | 0.00 | 0.00 | 0.00 | 56 | 1018.3 |
| 20260906065222 | 20 | 294 | 0.0 | 0.0 | 0.00 | 0.00 | 0.00 | 56 | 1018.4 |
| 20260906064717 | 20 | 293 | 0.0 | 0.0 | 0.00 | 0.00 | 0.00 | 54 | 1018.4 |
| 20260906064213 | 20 | 297 | 0.0 | 0.0 | 0.00 | 0.00 | 0.00 | 52 | 1018.5 |
| 20260906063708 | 20 | 297 | 0.0 | 0.0 | 0.00 | 0.00 | 0.00 | 52 | 1018.6 |
| 20260906063203 | 21 | 296 | 0.0 | 0.0 | 0.00 | 0.00 | 0.00 | 51 | 1018.6 |
| 20260906062659 | 21 | 298 | 0.0 | 0.0 | 0.00 | 0.00 | 0.00 | 51 | 1018.4 |
| 20260906062158 | 21 | 303 | 0.0 | 0.0 | 0.00 | 0.00 | 0.00 | 50 | 1018.4 |
| 20260906061654 | 21 | 298 | 0.0 | 0.0 | 0.00 | 0.00 | 0.00 | 49 | 1018.5 |
| 20260906061149 | 21 | 295 | 0.0 | 0.0 | 0.00 | 0.00 | 0.00 | 48 | 1018.8 |
| 20260906060645 | 22 | 296 | 0.0 | 0.0 | 0.00 | 0.00 | 0.00 | 47 | 1019.0 |
| 20260906060142 | 22 | 301 | 0.0 | 0.0 | 0.00 | 0.00 | 0.00 | 47 | 1019.1 |
| 20260906055638 | 22 | 300 | 0.0 | 0.0 | 0.00 | 0.00 | 0.00 | 46 | 1019.2 |
| 20260906055133 | 22 | 320 | 1.6 | 3.2 | 0.00 | 0.00 | 0.00 | 45 | 1019.2 |
| 20260906054628 | 22 | 304 | 0.0 | 0.0 | 0.00 | 0.00 | 0.00 | 43 | 1018.9 |
| 20260906054123 | 22 | 303 | 0.0 | 0.0 | 0.00 | 0.00 | 0.00 | 44 | 1019.0 |
| 20260906053619 | 22 | 305 | 0.0 | 0.0 | 0.00 | 0.00 | 0.00 | 46 | 1019.0 |
| 20260906053114 | 22 | 294 | 0.0 | 0.0 | 0.00 | 0.00 | 0.00 | 44 | 1018.9 |
| 20260906052610 | 22 | 297 | 0.0 | 0.0 | 0.00 | 0.00 | 0.00 | 44 | 1019.2 |
| 20260906052106 | 22 | 300 | 0.0 | 0.0 | 0.00 | 0.00 | 0.00 | 44 | 1019.2 |
| 20260906051601 | 22 | 302 | 0.0 | 0.0 | 0.00 | 0.00 | 0.00 | 44 | 1019.1 |
| 20260906051052 | 22 | 305 | 0.0 | 0.0 | 0.00 | 0.00 | 0.00 | 41 | 1018.8 |
| 20260906050546 | 23 | 298 | 0.0 | 0.0 | 0.00 | 0.00 | 0.00 | 43 | 1018.8 |
| 20260906050042 | 23 | 298 | 0.0 | 0.0 | 0.00 | 0.00 | 0.00 | 45 | 1018.9 |
| 20260906045540 | 23 | 295 | 0.0 | 0.0 | 0.00 | 0.00 | 0.00 | 43 | 1018.9 |
| 20260906045036 | 23 | 304 | 0.0 | 0.0 | 0.00 | 0.00 | 0.00 | 40 | 1019.0 |
| 20260906044531 | 23 | 297 | 0.0 | 0.0 | 0.00 | 0.00 | 0.00 | 42 | 1019.5 |
| 20260906044027 | 23 | 297 | 0.0 | 0.0 | 0.00 | 0.00 | 0.00 | 43 | 1019.3 |
| 20260906043522 | 23 | 296 | 0.0 | 0.0 | 0.00 | 0.00 | 0.00 | 42 | 1019.3 |
| 20260906043019 | 22 | 304 | 0.0 | 0.0 | 0.00 | 0.00 | 0.00 | 42 | 1019.3 |
| 20260906042516 | 22 | 305 | 0.0 | 0.0 | 0.00 | 0.00 | 0.00 | 44 | 1019.0 |
| 20260906042011 | 22 | 294 | 0.0 | 0.0 | 0.00 | 0.00 | 0.00 | 41 | 1018.6 |
| 20260906041508 | 22 | 296 | 0.0 | 0.0 | 0.00 | 0.00 | 0.00 | 41 | 1019.0 |
| 20260906041008 | 22 | 308 | 0.0 | 0.0 | 0.00 | 0.00 | 0.00 | 40 | 1019.2 |
| 20260906040502 | 22 | 304 | 0.0 | 0.0 | 0.00 | 0.00 | 0.00 | 41 | 1018.9 |
| 20260906035957 | 22 | 303 | 0.0 | 0.0 | 0.00 | 0.00 | 0.00 | 41 | 1018.9 |
| 20260906035453 | 22 | 296 | 0.0 | 1.6 | 0.00 | 0.00 | 0.00 | 42 | 1019.0 |
| 20260906034949 | 22 | 293 | 0.0 | 0.0 | 0.00 | 0.00 | 0.00 | 42 | 1018.6 |
| 20260906034449 | 22 | 298 | 0.0 | 0.0 | 0.00 | 0.00 | 0.00 | 48 | 1018.0 |
| 20260906033944 | 22 | 297 | 0.0 | 0.0 | 0.00 | 0.00 | 0.00 | 44 | 1017.8 |
| 20260906033438 | 22 | 294 | 0.0 | 0.0 | 0.00 | 0.00 | 0.00 | 43 | 1017.7 |
| 20260906032934 | 23 | 294 | 0.0 | 0.0 | 0.00 | 0.00 | 0.00 | 39 | 1017.7 |
| 20260906032431 | 23 | 290 | 0.0 | 0.0 | 0.00 | 0.00 | 0.00 | 39 | 1017.7 |
| 20260906031925 | 23 | 297 | 0.0 | 0.0 | 0.00 | 0.00 | 0.00 | 38 | 1017.7 |
| 20260906031420 | 23 | 296 | 0.0 | 0.0 | 0.00 | 0.00 | 0.00 | 39 | 1017.6 |
| 20260906030915 | 23 | 296 | 0.0 | 0.0 | 0.00 | 0.00 | 0.00 | 40 | 1017.7 |
| 20260906030410 | 23 | 296 | 0.0 | 0.0 | 0.00 | 0.00 | 0.00 | 38 | 1017.3 |
| 20260906025905 | 23 | 293 | 0.0 | 0.0 | 0.00 | 0.00 | 0.00 | 37 | 1017.2 |
| 20260906025359 | 23 | 298 | 0.0 | 0.0 | 0.00 | 0.00 | 0.00 | 37 | 1017.3 |
| 20260906024858 | 23 | 296 | 0.0 | 0.0 | 0.00 | 0.00 | 0.00 | 37 | 1017.2 |
| 20260906024357 | 23 | 302 | 0.0 | 0.0 | 0.00 | 0.00 | 0.00 | 37 | 1016.9 |
| 20260906023852 | 23 | 297 | 0.0 | 0.0 | 0.00 | 0.00 | 0.00 | 37 | 1017.1 |
| 20260906023348 | 24 | 298 | 0.0 | 0.0 | 0.00 | 0.00 | 0.00 | 36 | 1017.1 |
| 20260906022843 | 24 | 300 | 0.0 | 0.0 | 0.00 | 0.00 | 0.00 | 35 | 1017.1 |
| 20260906022338 | 25 | 298 | 0.0 | 0.0 | 0.00 | 0.00 | 0.00 | 35 | 1017.3 |
| 20260906021834 | 25 | 299 | 0.0 | 0.0 | 0.00 | 0.00 | 0.00 | 34 | 1017.2 |
| 20260906021333 | 25 | 298 | 0.0 | 0.0 | 0.00 | 0.00 | 0.00 | 33 | 1017.2 |
| 20260906020828 | 25 | 298 | 0.0 | 0.0 | 0.00 | 0.00 | 0.00 | 32 | 1016.9 |
| 20260906020327 | 26 | 297 | 0.0 | 0.0 | 0.00 | 0.00 | 0.00 | 32 | 1017.1 |
| 20260906015822 | 26 | 297 | 0.0 | 0.0 | 0.00 | 0.00 | 0.00 | 31 | 1016.9 |
| 20260906015320 | 26 | 298 | 0.0 | 0.0 | 0.00 | 0.00 | 0.00 | 31 | 1016.9 |
| 20260906014815 | 26 | 308 | 0.0 | 1.6 | 0.00 | 0.00 | 0.00 | 29 | 1016.9 |
| 20260906014310 | 25 | 307 | 3.2 | 3.2 | 0.00 | 0.00 | 0.00 | 32 | 1016.8 |
| 20260906013806 | 25 | 303 | 0.0 | 0.0 | 0.00 | 0.00 | 0.00 | 34 | 1016.5 |
| 20260906013301 | 26 | 298 | 0.0 | 0.0 | 0.00 | 0.00 | 0.00 | 32 | 1016.3 |
| 20260906012757 | 26 | 298 | 0.0 | 0.0 | 0.00 | 0.00 | 0.00 | 32 | 1016.4 |
| 20260906012251 | 26 | 298 | 0.0 | 0.0 | 0.00 | 0.00 | 0.00 | 30 | 1016.2 |
| 20260906011747 | 27 | 298 | 0.0 | 0.0 | 0.00 | 0.00 | 0.00 | 30 | 1016.2 |
| 20260906011246 | 27 | 298 | 0.0 | 0.0 | 0.00 | 0.00 | 0.00 | 29 | 1015.9 |
| 20260906010742 | 27 | 298 | 0.0 | 0.0 | 0.00 | 0.00 | 0.00 | 28 | 1015.9 |
| 20260906010238 | 28 | 296 | 0.0 | 0.0 | 0.00 | 0.00 | 0.00 | 28 | 1016.3 |
| 20260906005732 | 28 | 299 | 0.0 | 0.0 | 0.00 | 0.00 | 0.00 | 29 | 1016.3 |
| 20260906005226 | 28 | 298 | 0.0 | 0.0 | 0.00 | 0.00 | 0.00 | 27 | 1016.2 |
| 20260906004725 | 29 | 298 | 0.0 | 0.0 | 0.00 | 0.00 | 0.00 | 27 | 1016.3 |
| 20260906004215 | 29 | 298 | 0.0 | 0.0 | 0.00 | 0.00 | 0.00 | 25 | 1016.2 |
| 20260906003710 | 30 | 298 | 0.0 | 0.0 | 0.00 | 0.00 | 0.00 | 24 | 1016.0 |
| 20260906003206 | 30 | 298 | 0.0 | 0.0 | 0.00 | 0.00 | 0.00 | 23 | 1016.4 |
| 20260906002706 | 30 | 312 | 0.0 | 0.0 | 0.00 | 0.00 | 0.00 | 23 | 1016.3 |
| 20260906002201 | 31 | 339 | 1.6 | 1.6 | 0.00 | 0.00 | 0.00 | 22 | 1016.3 |
| 20260906001656 | 31 | 321 | 0.0 | 0.0 | 0.00 | 0.00 | 0.00 | 23 | 1016.4 |
| 20260906001155 | 31 | 302 | 0.0 | 0.0 | 0.00 | 0.00 | 0.00 | 22 | 1016.4 |
| 20260906000651 | 31 | 307 | 0.0 | 0.0 | 0.00 | 0.00 | 0.00 | 22 | 1016.2 |
| 20260906000147 | 31 | 308 | 0.0 | 0.0 | 0.00 | 0.00 | 0.00 | 22 | 1016.0 |
| 20260905235645 | 31 | 20 | 1.6 | 1.6 | 0.00 | 0.00 | 0.00 | 22 | 1016.0 |
| 20260905235141 | 31 | 293 | 0.0 | 0.0 | 0.00 | 0.00 | 0.00 | 22 | 1015.8 |
| 20260905234636 | 31 | 303 | 0.0 | 0.0 | 0.00 | 0.00 | 0.00 | 22 | 1015.8 |
| 20260905234131 | 31 | 323 | 0.0 | 1.6 | 0.00 | 0.00 | 0.00 | 22 | 1015.9 |
| 20260905233626 | 31 | 292 | 0.0 | 0.0 | 0.00 | 0.00 | 0.00 | 22 | 1015.9 |
| 20260905233120 | 31 | 307 | 0.0 | 1.6 | 0.00 | 0.00 | 0.00 | 22 | 1016.2 |
| 20260905232616 | 31 | 344 | 0.0 | 1.6 | 0.00 | 0.00 | 0.00 | 23 | 1015.9 |
| 20260905232111 | 31 | 319 | 0.0 | 0.0 | 0.00 | 0.00 | 0.00 | 22 | 1015.9 |
| 20260905231606 | 31 | 303 | 0.0 | 0.0 | 0.00 | 0.00 | 0.00 | 23 | 1015.8 |
| 20260905231102 | 31 | 314 | 0.0 | 0.0 | 0.00 | 0.00 | 0.00 | 21 | 1015.9 |
| 20260905230602 | 31 | 297 | 0.0 | 0.0 | 0.00 | 0.00 | 0.00 | 22 | 1015.8 |
| 20260905230100 | 31 | 291 | 0.0 | 0.0 | 0.00 | 0.00 | 0.00 | 23 | 1016.0 |
| 20260905225555 | 31 | 298 | 0.0 | 1.6 | 0.00 | 0.00 | 0.00 | 21 | 1015.8 |
| 20260905225050 | 31 | 333 | 0.0 | 0.0 | 0.00 | 0.00 | 0.00 | 22 | 1016.0 |
| 20260905224550 | 31 | 326 | 1.6 | 1.6 | 0.00 | 0.00 | 0.00 | 22 | 1016.0 |